Time;durP1;ratioP1;P1;durP2;ratioP2;P2;SDS_P1;SDS_P2;PMS_P1;PMS_P2;Temp;Humidity;BMP_temperature;BMP_pressure;BME280_temperature;BME280_humidity;BME280_pressure;Samples;Min_cycle;Max_cycle;Signal;HPM_P1;HPM_P2
2023/01/24 00:01:40;;;;;;;;;;;;;;;0.87;100.00;103492.97;10477423;28;19924;-75
2023/01/24 00:06:41;;;;;;;;;;;;;;;0.77;100.00;103495.09;10505428;28;19930;-74
2023/01/24 00:11:41;;;;;;;;;;;;;;;0.72;100.00;103509.94;10521828;28;19920;-75
2023/01/24 00:16:41;;;;;;;;;;;;;;;0.78;100.00;103502.09;10500260;28;19959;-74
2023/01/24 00:21:42;;;;;;;;;;;;;;;0.79;100.00;103493.63;10477876;28;19920;-75
2023/01/24 00:26:42;;;;;;;;;;;;;;;0.77;100.00;103498.56;10523368;28;19920;-74
2023/01/24 00:31:42;;;;;;;;;;;;;;;0.68;100.00;103502.53;10504333;28;19912;-75
2023/01/24 00:36:42;;;;;;;;;;;;;;;0.69;100.00;103494.06;10516660;28;20003;-75
2023/01/24 00:41:43;;;;;;;;;;;;;;;0.76;100.00;103499.28;10463512;28;20367;-74
2023/01/24 00:46:43;;;;;;;;;;;;;;;0.82;100.00;103489.78;10516049;28;19935;-75
2023/01/24 00:51:43;;;;;;;;;;;;;;;0.85;100.00;103485.00;10504771;28;19928;-74
2023/01/24 00:56:44;;;;;;;;;;;;;;;0.88;100.00;103482.84;10509106;28;19968;-74
2023/01/24 01:01:44;;;;;;;;;;;;;;;0.85;100.00;103482.44;10502446;28;19932;-74
2023/01/24 01:06:44;;;;;;;;;;;;;;;1.05;100.00;103476.34;10512584;28;19920;-75
2023/01/24 01:11:45;;;;;;;;;;;;;;;0.99;100.00;103479.06;10503012;28;19920;-75
2023/01/24 01:16:45;;;;;;;;;;;;;;;1.09;100.00;103475.09;10485183;28;20383;-75
2023/01/24 01:21:45;;;;;;;;;;;;;;;1.11;100.00;103477.13;10521498;28;20188;-74
2023/01/24 01:26:46;;;;;;;;;;;;;;;1.01;100.00;103471.50;10519433;28;19920;-74
2023/01/24 01:31:46;;;;;;;;;;;;;;;0.97;100.00;103475.38;10504821;28;19953;-75
2023/01/24 01:36:46;;;;;;;;;;;;;;;0.91;100.00;103491.69;10496236;28;20379;-74
2023/01/24 01:41:47;;;;;;;;;;;;;;;0.86;100.00;103492.03;10528713;28;19920;-75
2023/01/24 01:46:48;;;;;;;;;;;;;;;0.87;100.00;103485.22;10491097;28;19976;-74
2023/01/24 01:51:49;;;;;;;;;;;;;;;0.82;100.00;103484.63;10487690;28;19916;-74
2023/01/24 01:56:50;;;;;;;;;;;;;;;0.85;100.00;103485.00;10500552;28;21753;-74
2023/01/24 02:01:51;;;;;;;;;;;;;;;0.92;100.00;103489.31;10512878;28;20449;-74
2023/01/24 02:06:56;;;;;;;;;;;;;;;0.99;100.00;103489.38;10472808;28;19928;-75
2023/01/24 02:12:03;;;;;;;;;;;;;;;0.96;100.00;103481.25;10485087;28;19927;-75
2023/01/24 02:17:03;;;;;;;;;;;;;;;0.84;100.00;103480.59;10487196;28;19920;-75
2023/01/24 02:22:07;;;;;;;;;;;;;;;0.73;100.00;103488.59;10506768;28;19928;-75
2023/01/24 02:27:08;;;;;;;;;;;;;;;0.71;100.00;103496.13;10497180;28;19916;-75
2023/01/24 02:32:08;;;;;;;;;;;;;;;0.71;100.00;103488.41;10500466;28;20364;-74
2023/01/24 02:37:10;;;;;;;;;;;;;;;0.77;100.00;103492.50;10504860;28;20003;-74
2023/01/24 02:42:12;;;;;;;;;;;;;;;0.80;100.00;103487.75;10496733;28;19920;-75
2023/01/24 02:47:12;;;;;;;;;;;;;;;0.80;100.00;103480.91;10494752;28;19924;-74
2023/01/24 03:02:50;;;;;;;;;;;;;;;0.71;100.00;103482.31;10521112;28;19973;-74
2023/01/24 03:07:51;;;;;;;;;;;;;;;0.63;100.00;103475.22;10488071;28;19920;-74
2023/01/24 03:44:44;;;;;;;;;;;;;;;0.69;100.00;103456.34;10516190;28;20365;-74
2023/01/24 03:55:04;;;;;;;;;;;;;;;0.69;100.00;103461.50;10525327;28;19922;-74
2023/01/24 04:00:05;;;;;;;;;;;;;;;0.80;100.00;103455.13;10506595;28;19920;-74
2023/01/24 04:05:14;;;;;;;;;;;;;;;0.71;100.00;103454.88;10524152;28;19920;-75
2023/01/24 04:10:14;;;;;;;;;;;;;;;0.65;100.00;103455.72;10519426;28;19977;-75
2023/01/24 04:15:19;;;;;;;;;;;;;;;0.66;100.00;103452.44;10523168;28;19938;-74
2023/01/24 04:20:19;;;;;;;;;;;;;;;0.68;100.00;103454.50;10505273;28;19920;-74
2023/01/24 04:25:20;;;;;;;;;;;;;;;0.63;100.00;103447.81;10524377;28;19916;-75
2023/01/24 04:30:20;;;;;;;;;;;;;;;0.57;100.00;103452.19;10517298;28;19949;-74
2023/01/24 04:35:21;;;;;;;;;;;;;;;0.54;100.00;103450.13;10505821;28;19927;-74
2023/01/24 04:40:22;;;;;;;;;;;;;;;0.68;100.00;103463.88;10503264;28;19923;-74
2023/01/24 04:45:22;;;;;;;;;;;;;;;0.67;100.00;103452.66;10477523;28;20291;-75
2023/01/24 04:50:22;;;;;;;;;;;;;;;0.61;100.00;103461.22;10488924;28;19917;-75
2023/01/24 04:55:23;;;;;;;;;;;;;;;0.55;100.00;103461.38;10512862;28;19920;-75
2023/01/24 05:00:23;;;;;;;;;;;;;;;0.59;100.00;103466.19;10517445;28;19920;-74
2023/01/24 05:05:23;;;;;;;;;;;;;;;0.62;100.00;103457.91;10523705;28;19920;-74
2023/01/24 05:10:24;;;;;;;;;;;;;;;0.63;100.00;103457.19;10519115;28;19920;-75
2023/01/24 05:15:25;;;;;;;;;;;;;;;0.60;100.00;103464.53;10521369;28;20548;-74
2023/01/24 05:20:26;;;;;;;;;;;;;;;0.53;100.00;103468.88;10491693;28;20007;-73
2023/01/24 05:25:26;;;;;;;;;;;;;;;0.61;100.00;103476.69;10507242;28;20386;-76
2023/01/24 05:30:26;;;;;;;;;;;;;;;0.65;100.00;103481.50;10505069;28;20058;-75
2023/01/24 05:35:27;;;;;;;;;;;;;;;0.49;100.00;103488.91;10497748;28;19924;-75
2023/01/24 05:40:27;;;;;;;;;;;;;;;0.40;100.00;103483.47;10510349;28;19920;-75
2023/01/24 05:45:27;;;;;;;;;;;;;;;0.52;100.00;103482.50;10498980;28;19920;-75
2023/01/24 05:50:28;;;;;;;;;;;;;;;0.48;100.00;103482.81;10508122;28;19928;-75
2023/01/24 05:55:28;;;;;;;;;;;;;;;0.48;100.00;103492.22;10506351;28;19935;-74
2023/01/24 06:00:28;;;;;;;;;;;;;;;0.50;100.00;103493.34;10512693;28;20280;-75
2023/01/24 06:05:29;;;;;;;;;;;;;;;0.49;100.00;103494.06;10522795;28;20371;-75
2023/01/24 06:10:29;;;;;;;;;;;;;;;0.44;100.00;103506.34;10506126;28;19920;-75
2023/01/24 06:15:29;;;;;;;;;;;;;;;0.39;100.00;103515.13;10505863;28;20065;-77
2023/01/24 06:20:30;;;;;;;;;;;;;;;0.46;100.00;103517.78;10505311;28;19920;-75
2023/01/24 06:25:30;;;;;;;;;;;;;;;0.43;100.00;103518.31;10507372;28;19920;-76
2023/01/24 06:30:31;;;;;;;;;;;;;;;0.41;100.00;103514.59;10482693;28;20065;-74
2023/01/24 06:35:34;;;;;;;;;;;;;;;0.39;100.00;103518.63;10520753;28;19929;-75
2023/01/24 06:40:35;;;;;;;;;;;;;;;0.28;100.00;103514.63;10480287;28;20432;-76
2023/01/24 06:45:35;;;;;;;;;;;;;;;0.26;100.00;103528.06;10526134;28;19926;-76
2023/01/24 06:50:35;;;;;;;;;;;;;;;0.27;100.00;103527.31;10491535;28;19916;-76
2023/01/24 06:55:38;;;;;;;;;;;;;;;0.29;100.00;103529.38;10499303;28;19945;-76
2023/01/24 07:00:38;;;;;;;;;;;;;;;0.37;100.00;103527.81;10508184;28;19926;-76
2023/01/24 07:05:38;;;;;;;;;;;;;;;0.32;100.00;103539.16;10513783;28;20003;-77
2023/01/24 07:10:39;;;;;;;;;;;;;;;0.33;100.00;103538.44;10493414;28;20352;-76
2023/01/24 07:15:40;;;;;;;;;;;;;;;0.35;100.00;103538.63;10480664;28;20026;-76
2023/01/24 07:20:40;;;;;;;;;;;;;;;0.36;100.00;103545.63;10484029;28;19936;-78
2023/01/24 07:25:42;;;;;;;;;;;;;;;0.37;100.00;103555.22;10467583;28;19923;-77
2023/01/24 07:30:44;;;;;;;;;;;;;;;0.33;100.00;103568.41;10468139;28;19924;-77
2023/01/24 07:35:45;;;;;;;;;;;;;;;0.32;100.00;103571.72;10469607;28;19927;-77
2023/01/24 07:40:45;;;;;;;;;;;;;;;0.43;100.00;103568.91;10448619;28;20361;-77
2023/01/24 07:45:46;;;;;;;;;;;;;;;0.43;100.00;103586.94;10482098;28;19920;-76
2023/01/24 07:50:46;;;;;;;;;;;;;;;0.49;100.00;103580.03;10511491;28;19920;-76
2023/01/24 07:55:46;;;;;;;;;;;;;;;0.43;100.00;103579.22;10483354;28;19923;-76
2023/01/24 08:00:47;;;;;;;;;;;;;;;0.49;100.00;103585.19;10509114;28;19927;-76
2023/01/24 08:05:47;;;;;;;;;;;;;;;0.48;100.00;103585.00;10481246;28;20414;-77
2023/01/24 08:10:47;;;;;;;;;;;;;;;0.58;100.00;103590.63;10447732;28;19927;-75
2023/01/24 08:15:48;;;;;;;;;;;;;;;0.55;100.00;103598.88;10487701;28;20367;-76
2023/01/24 08:20:48;;;;;;;;;;;;;;;0.56;100.00;103603.31;10524007;28;20015;-76
2023/01/24 08:25:49;;;;;;;;;;;;;;;0.62;100.00;103600.63;10523094;28;20411;-76
2023/01/24 08:30:49;;;;;;;;;;;;;;;0.63;100.00;103604.13;10524267;28;19916;-78
2023/01/24 08:35:49;;;;;;;;;;;;;;;0.61;100.00;103608.16;10505822;28;19919;-76
2023/01/24 08:40:50;;;;;;;;;;;;;;;0.72;100.00;103613.06;10505584;28;20352;-77
2023/01/24 08:45:53;;;;;;;;;;;;;;;0.70;100.00;103617.09;10504447;28;20010;-76
2023/01/24 08:50:53;;;;;;;;;;;;;;;0.68;100.00;103616.91;10505491;28;19916;-76
2023/01/24 08:55:53;;;;;;;;;;;;;;;0.76;100.00;103614.41;10505197;28;19916;-77
2023/01/24 09:00:54;;;;;;;;;;;;;;;0.81;100.00;103624.59;10504387;28;20015;-76
2023/01/24 09:05:57;;;;;;;;;;;;;;;0.84;100.00;103629.22;10522462;28;19920;-74
2023/01/24 09:10:58;;;;;;;;;;;;;;;0.86;100.00;103628.69;10505943;28;20283;-76
2023/01/24 09:15:58;;;;;;;;;;;;;;;0.80;100.00;103625.31;10506469;28;19942;-76
2023/01/24 09:20:59;;;;;;;;;;;;;;;0.92;100.00;103626.00;10521494;28;19923;-77
2023/01/24 09:26:00;;;;;;;;;;;;;;;0.93;100.00;103629.50;10500037;28;20271;-76
2023/01/24 09:31:01;;;;;;;;;;;;;;;0.99;100.00;103627.72;10471378;28;20348;-76
2023/01/24 09:36:01;;;;;;;;;;;;;;;1.05;100.00;103627.63;10503308;28;19924;-76
2023/01/24 09:41:09;;;;;;;;;;;;;;;1.06;100.00;103620.06;10479439;28;19955;-75
2023/01/24 09:46:13;;;;;;;;;;;;;;;1.09;100.00;103619.53;10447752;28;20394;-75
2023/01/24 09:51:15;;;;;;;;;;;;;;;1.10;100.00;103623.97;10463451;28;19935;-76
2023/01/24 09:56:30;;;;;;;;;;;;;;;1.06;100.00;103625.22;10463904;28;19931;-76
2023/01/24 10:01:30;;;;;;;;;;;;;;;1.15;100.00;103633.25;10516511;28;20383;-76
2023/01/24 10:06:31;;;;;;;;;;;;;;;1.31;100.00;103642.25;10484569;28;19928;-75
2023/01/24 10:11:43;;;;;;;;;;;;;;;1.42;100.00;103641.03;10505289;28;19946;-75
2023/01/24 10:16:55;;;;;;;;;;;;;;;1.51;100.00;103633.56;10527064;28;19924;-77
2023/01/24 10:22:09;;;;;;;;;;;;;;;1.46;100.00;103635.56;10524286;28;19924;-75
2023/01/24 10:27:17;;;;;;;;;;;;;;;1.46;100.00;103634.63;10493623;28;19924;-76
2023/01/24 10:32:19;;;;;;;;;;;;;;;1.55;100.00;103638.41;10503780;28;19920;-76
2023/01/24 10:37:23;;;;;;;;;;;;;;;1.45;100.00;103649.19;10501418;28;19919;-75
2023/01/24 10:42:24;;;;;;;;;;;;;;;1.52;100.00;103640.59;10477673;28;20283;-75
2023/01/24 10:47:28;;;;;;;;;;;;;;;1.64;100.00;103635.16;10482144;28;19920;-76
2023/01/24 10:52:28;;;;;;;;;;;;;;;1.70;100.00;103634.25;10498309;28;20023;-76
2023/01/24 10:57:36;;;;;;;;;;;;;;;1.60;100.00;103638.97;10470367;28;19920;-75
2023/01/24 11:02:36;;;;;;;;;;;;;;;1.65;100.00;103644.75;10470976;28;19970;-76
2023/01/24 11:07:40;;;;;;;;;;;;;;;1.68;100.00;103633.16;10470494;28;20413;-77
2023/01/24 11:13:07;;;;;;;;;;;;;;;1.59;100.00;103632.91;10491401;28;20291;-76
2023/01/24 11:18:10;;;;;;;;;;;;;;;1.53;100.00;103631.19;10469831;28;20288;-76
2023/01/24 11:23:12;;;;;;;;;;;;;;;1.62;100.00;103627.19;10505570;28;19926;-76
2023/01/24 11:28:22;;;;;;;;;;;;;;;1.64;100.00;103624.81;10483751;28;20368;-76
2023/01/24 11:33:34;;;;;;;;;;;;;;;1.53;100.00;103619.22;10483151;28;19962;-75
2023/01/24 11:38:40;;;;;;;;;;;;;;;1.56;100.00;103608.34;10469034;28;19952;-76
2023/01/24 11:44:00;;;;;;;;;;;;;;;1.70;100.00;103598.13;10482111;28;19973;-75
2023/01/24 11:49:12;;;;;;;;;;;;;;;1.76;100.00;103601.47;10505546;28;20023;-76
2023/01/24 11:54:21;;;;;;;;;;;;;;;1.92;100.00;103592.19;10482550;28;19920;-75
2023/01/24 11:59:30;;;;;;;;;;;;;;;1.77;100.00;103581.75;10501224;28;19930;-75
2023/01/24 12:04:39;;;;;;;;;;;;;;;1.78;100.00;103578.44;10492041;28;19920;-75
2023/01/24 12:09:42;;;;;;;;;;;;;;;1.90;100.00;103573.88;10484087;28;19920;-77
2023/01/24 12:14:48;;;;;;;;;;;;;;;2.12;100.00;103571.44;10464938;28;19973;-75
2023/01/24 12:19:58;;;;;;;;;;;;;;;2.16;100.00;103558.16;10506394;28;19939;-77
2023/01/24 12:25:20;;;;;;;;;;;;;;;2.13;100.00;103560.34;10478592;28;19920;-76
2023/01/24 12:30:39;;;;;;;;;;;;;;;2.08;100.00;103549.47;10467089;28;19970;-75
2023/01/24 12:35:43;;;;;;;;;;;;;;;2.21;100.00;103536.41;10481469;28;19916;-75
2023/01/24 12:40:46;;;;;;;;;;;;;;;2.35;100.00;103541.63;10493443;28;20297;-75
2023/01/24 12:45:46;;;;;;;;;;;;;;;2.28;100.00;103532.94;10487659;28;19943;-77
2023/01/24 12:50:54;;;;;;;;;;;;;;;2.23;100.00;103537.50;10499443;28;19920;-75
2023/01/24 12:56:24;;;;;;;;;;;;;;;2.11;100.00;103533.41;10507133;28;19920;-76
2023/01/24 13:01:38;;;;;;;;;;;;;;;2.16;100.00;103528.09;10473478;28;19916;-76
2023/01/24 13:06:42;;;;;;;;;;;;;;;2.23;100.00;103524.59;10487289;28;19947;-75
2023/01/24 13:11:45;;;;;;;;;;;;;;;2.32;100.00;103524.81;10520125;28;20415;-76
2023/01/24 13:16:48;;;;;;;;;;;;;;;2.42;100.00;103520.06;10491094;28;19920;-76
2023/01/24 13:21:53;;;;;;;;;;;;;;;2.34;100.00;103516.50;10488798;28;19916;-75
2023/01/24 13:27:07;;;;;;;;;;;;;;;2.27;100.00;103507.81;10480732;28;19974;-76
2023/01/24 13:32:17;;;;;;;;;;;;;;;2.21;100.00;103507.97;10483212;28;20015;-75
2023/01/24 13:37:28;;;;;;;;;;;;;;;2.30;100.00;103511.69;10483443;28;19927;-76
2023/01/24 13:42:33;;;;;;;;;;;;;;;2.32;100.00;103515.41;10499822;28;20283;-77
2023/01/24 13:47:34;;;;;;;;;;;;;;;2.37;100.00;103522.78;10508815;28;19920;-75
2023/01/24 13:52:35;;;;;;;;;;;;;;;2.34;100.00;103521.69;10496449;28;20344;-76
2023/01/24 13:57:37;;;;;;;;;;;;;;;2.14;100.00;103524.38;10513483;28;19970;-76
2023/01/24 14:02:55;;;;;;;;;;;;;;;2.08;100.00;103514.94;10477305;28;19927;-76
2023/01/24 14:07:56;;;;;;;;;;;;;;;2.10;100.00;103521.22;10505350;28;20388;-77
2023/01/24 14:12:56;;;;;;;;;;;;;;;1.83;100.00;103527.38;10508267;28;19927;-76
2023/01/24 14:17:57;;;;;;;;;;;;;;;1.57;100.00;103515.63;10510656;28;19928;-76
2023/01/24 14:22:57;;;;;;;;;;;;;;;1.63;100.00;103522.28;10525394;28;19927;-76
2023/01/24 14:27:59;;;;;;;;;;;;;;;1.64;100.00;103525.03;10510854;28;20263;-76
2023/01/24 14:33:01;;;;;;;;;;;;;;;1.72;100.00;103524.34;10510412;28;19916;-76
2023/01/24 14:38:17;;;;;;;;;;;;;;;1.58;100.00;103522.63;10510942;28;20392;-76
2023/01/24 14:43:18;;;;;;;;;;;;;;;1.55;100.00;103529.97;10492640;28;19916;-76
2023/01/24 14:48:21;;;;;;;;;;;;;;;1.52;100.00;103529.59;10511334;28;19920;-76
2023/01/24 14:53:22;;;;;;;;;;;;;;;1.60;100.00;103538.28;10509949;28;19927;-76
2023/01/24 14:58:26;;;;;;;;;;;;;;;1.45;100.00;103539.88;10527524;28;19922;-76
2023/01/24 15:03:30;;;;;;;;;;;;;;;1.22;100.00;103539.50;10528377;28;19977;-75
2023/01/24 15:08:30;;;;;;;;;;;;;;;1.20;100.00;103540.94;10508377;28;19957;-76
2023/01/24 15:13:35;;;;;;;;;;;;;;;1.06;100.00;103545.25;10484615;28;20007;-76
2023/01/24 15:18:38;;;;;;;;;;;;;;;1.03;100.00;103550.00;10461391;28;19928;-76
2023/01/24 15:23:38;;;;;;;;;;;;;;;1.00;100.00;103553.16;10443600;28;19921;-75
2023/01/24 15:28:41;;;;;;;;;;;;;;;1.00;100.00;103553.16;10442388;28;19921;-76
2023/01/24 15:33:41;;;;;;;;;;;;;;;0.98;100.00;103553.66;10444680;28;20061;-76
2023/01/24 15:38:44;;;;;;;;;;;;;;;1.04;100.00;103554.44;10442444;28;20432;-76
2023/01/24 15:43:49;;;;;;;;;;;;;;;0.97;100.00;103557.91;10443049;28;19987;-76
2023/01/24 15:48:56;;;;;;;;;;;;;;;0.85;100.00;103554.63;10442342;28;19916;-76
2023/01/24 15:53:56;;;;;;;;;;;;;;;0.81;100.00;103546.31;10443319;28;19921;-76
2023/01/24 15:58:57;;;;;;;;;;;;;;;0.81;100.00;103539.50;10441760;28;20299;-77
2023/01/24 16:04:00;;;;;;;;;;;;;;;0.76;100.00;103540.53;10441897;28;19970;-76
2023/01/24 16:09:01;;;;;;;;;;;;;;;0.66;100.00;103540.06;10482602;28;19928;-76
2023/01/24 16:14:01;;;;;;;;;;;;;;;0.60;100.00;103537.63;10509098;28;19984;-77
2023/01/24 16:19:01;;;;;;;;;;;;;;;0.59;100.00;103538.38;10447987;28;20424;-76
2023/01/24 16:24:02;;;;;;;;;;;;;;;0.60;100.00;103536.69;10463765;28;20303;-77
2023/01/24 16:29:02;;;;;;;;;;;;;;;0.63;100.00;103544.81;10504949;28;19920;-77
2023/01/24 16:34:03;;;;;;;;;;;;;;;0.56;100.00;103543.13;10503962;28;20280;-77
2023/01/24 16:39:03;;;;;;;;;;;;;;;0.65;100.00;103540.81;10464642;28;20007;-77
2023/01/24 16:44:03;;;;;;;;;;;;;;;0.70;100.00;103544.91;10473892;28;20369;-77
2023/01/24 16:49:04;;;;;;;;;;;;;;;0.66;100.00;103542.66;10481041;28;19921;-77
2023/01/24 16:54:04;;;;;;;;;;;;;;;0.53;100.00;103548.78;10512887;28;19969;-77
2023/01/24 16:59:05;;;;;;;;;;;;;;;0.50;100.00;103542.31;10463154;28;19920;-76
2023/01/24 17:04:05;;;;;;;;;;;;;;;0.53;100.00;103542.72;10449153;28;20322;-77
2023/01/24 17:09:06;;;;;;;;;;;;;;;0.58;100.00;103552.88;10473807;28;21503;-77
2023/01/24 17:14:07;;;;;;;;;;;;;;;0.44;100.00;103552.72;10488379;28;20356;-77
2023/01/24 17:19:07;;;;;;;;;;;;;;;0.37;100.00;103558.72;10490633;28;19920;-77
2023/01/24 17:24:07;;;;;;;;;;;;;;;0.35;100.00;103560.19;10489382;28;19921;-77
2023/01/24 17:29:08;;;;;;;;;;;;;;;0.34;100.00;103570.28;10450921;28;20042;-76
2023/01/24 17:34:08;;;;;;;;;;;;;;;0.34;100.00;103567.69;10442943;28;19924;-76
2023/01/24 17:39:08;;;;;;;;;;;;;;;0.37;100.00;103568.09;10488225;28;20011;-76
2023/01/24 17:44:09;;;;;;;;;;;;;;;0.53;100.00;103560.75;10470277;28;20018;-77
2023/01/24 17:49:09;;;;;;;;;;;;;;;0.51;100.00;103567.38;10449422;28;19921;-76
2023/01/24 17:54:10;;;;;;;;;;;;;;;0.46;100.00;103561.59;10487916;28;20045;-77
2023/01/24 17:59:10;;;;;;;;;;;;;;;0.42;100.00;103561.91;10449875;28;20356;-76
2023/01/24 18:04:10;;;;;;;;;;;;;;;0.37;100.00;103556.16;10445238;28;19946;-76
2023/01/24 18:09:11;;;;;;;;;;;;;;;0.37;100.00;103552.63;10485220;28;20034;-78
2023/01/24 18:14:11;;;;;;;;;;;;;;;0.39;100.00;103553.75;10485585;28;20382;-76
2023/01/24 18:19:12;;;;;;;;;;;;;;;0.34;100.00;103554.81;10450296;28;20016;-77
2023/01/24 18:24:18;;;;;;;;;;;;;;;0.30;100.00;103556.06;10445473;28;19924;-76
2023/01/24 18:29:19;;;;;;;;;;;;;;;0.26;100.00;103556.38;10427862;28;19921;-77
2023/01/24 18:34:19;;;;;;;;;;;;;;;0.25;100.00;103551.97;10464027;28;19921;-77
2023/01/24 18:39:19;;;;;;;;;;;;;;;0.20;100.00;103559.06;10485992;28;19999;-78
2023/01/24 18:44:20;;;;;;;;;;;;;;;0.17;100.00;103556.06;10449014;28;20198;-76
2023/01/24 18:49:20;;;;;;;;;;;;;;;0.14;100.00;103545.38;10443115;28;19974;-77
2023/01/24 18:54:20;;;;;;;;;;;;;;;0.10;100.00;103544.06;10480210;28;20335;-79
2023/01/24 18:59:21;;;;;;;;;;;;;;;0.04;100.00;103544.88;10486113;28;19928;-78
2023/01/24 19:04:21;;;;;;;;;;;;;;;-0.01;100.00;103546.84;10448249;28;19971;-78
2023/01/24 19:09:21;;;;;;;;;;;;;;;0.04;100.00;103540.66;10443019;28;19920;-78
2023/01/24 19:14:22;;;;;;;;;;;;;;;0.03;100.00;103540.44;10477316;28;19920;-76
2023/01/24 19:19:24;;;;;;;;;;;;;;;-0.06;100.00;103548.78;10456234;28;19924;-76
2023/01/24 19:24:26;;;;;;;;;;;;;;;-0.08;100.00;103544.16;10480966;28;19931;-78
2023/01/24 19:29:28;;;;;;;;;;;;;;;-0.07;100.00;103543.44;10461991;28;20343;-77
2023/01/24 19:34:28;;;;;;;;;;;;;;;-0.18;100.00;103553.25;10426932;28;19924;-76
2023/01/24 19:39:29;;;;;;;;;;;;;;;-0.14;100.00;103551.97;10462705;28;20674;-76
2023/01/24 19:44:29;;;;;;;;;;;;;;;-0.03;100.00;103563.75;10477851;28;19935;-76
2023/01/24 19:49:29;;;;;;;;;;;;;;;0.01;100.00;103554.75;10463219;28;19920;-78
2023/01/24 19:54:30;;;;;;;;;;;;;;;0.07;100.00;103555.56;10483229;28;24655;-77
2023/01/24 19:59:30;;;;;;;;;;;;;;;-0.07;100.00;103548.59;10481911;28;19920;-76
2023/01/24 20:04:31;;;;;;;;;;;;;;;-0.17;100.00;103560.25;10483006;28;20379;-77
2023/01/24 20:09:31;;;;;;;;;;;;;;;-0.11;100.00;103554.97;10470338;28;20368;-77
2023/01/24 20:14:31;;;;;;;;;;;;;;;-0.12;100.00;103558.25;10459091;28;19970;-77
2023/01/24 20:19:32;;;;;;;;;;;;;;;-0.25;100.00;103555.72;10460900;28;19924;-77
2023/01/24 20:24:32;;;;;;;;;;;;;;;-0.25;100.00;103563.44;10484376;28;19924;-77
2023/01/24 20:29:32;;;;;;;;;;;;;;;-0.22;100.00;103570.63;10463201;28;19920;-76
2023/01/24 20:34:33;;;;;;;;;;;;;;;-0.16;100.00;103561.16;10440529;28;20356;-76
2023/01/24 20:39:33;;;;;;;;;;;;;;;-0.23;100.00;103566.19;10442161;28;19932;-76
2023/01/24 20:44:33;;;;;;;;;;;;;;;-0.21;100.00;103568.28;10440953;28;19917;-76
2023/01/24 20:49:34;;;;;;;;;;;;;;;-0.23;100.00;103572.28;10439656;28;19916;-76
2023/01/24 20:54:34;;;;;;;;;;;;;;;-0.24;100.00;103570.44;10483465;28;19916;-76
2023/01/24 20:59:34;;;;;;;;;;;;;;;-0.26;100.00;103581.22;10460806;28;20373;-77
2023/01/24 21:04:35;;;;;;;;;;;;;;;-0.27;100.00;103581.94;10440969;28;20025;-77
2023/01/24 21:09:35;;;;;;;;;;;;;;;-0.25;100.00;103573.72;10456493;28;20018;-77
2023/01/24 21:14:35;;;;;;;;;;;;;;;-0.22;100.00;103588.66;10448948;28;19920;-76
2023/01/24 21:19:42;;;;;;;;;;;;;;;-0.26;100.00;103581.22;10461166;28;20016;-76
2023/01/24 21:24:42;;;;;;;;;;;;;;;-0.30;100.00;103570.53;10451935;28;19924;-75
2023/01/24 21:29:42;;;;;;;;;;;;;;;-0.24;100.00;103574.63;10458141;28;19928;-77
2023/01/24 21:34:43;;;;;;;;;;;;;;;-0.28;100.00;103572.38;10462721;28;20481;-77
2023/01/24 21:39:43;;;;;;;;;;;;;;;-0.24;100.00;103562.72;10452923;28;20425;-77
2023/01/24 21:44:43;;;;;;;;;;;;;;;-0.33;100.00;103564.97;10464616;28;20346;-76
2023/01/24 21:49:44;;;;;;;;;;;;;;;-0.42;100.00;103561.13;10449135;28;20356;-77
2023/01/24 21:54:45;;;;;;;;;;;;;;;-0.45;100.00;103566.81;10467271;28;20007;-76
2023/01/24 21:59:45;;;;;;;;;;;;;;;-0.56;100.00;103563.50;10472674;28;19920;-77
2023/01/24 22:04:46;;;;;;;;;;;;;;;-0.57;100.00;103561.63;10478655;28;19970;-77
2023/01/24 22:09:46;;;;;;;;;;;;;;;-0.63;100.00;103548.88;10486809;28;19923;-78
2023/01/24 22:14:47;;;;;;;;;;;;;;;-0.68;100.00;103552.47;10515687;28;19921;-78
2023/01/24 22:19:48;;;;;;;;;;;;;;;-0.74;100.00;103549.97;10497486;28;20315;-76
2023/01/24 22:24:57;;;;;;;;;;;;;;;-0.70;100.00;103539.38;10478094;28;19923;-76
2023/01/24 22:29:58;;;;;;;;;;;;;;;-0.67;100.00;103546.63;10497281;28;19931;-76
2023/01/24 22:34:58;;;;;;;;;;;;;;;-0.78;100.00;103543.50;10499837;28;19927;-76
2023/01/24 22:39:59;;;;;;;;;;;;;;;-0.72;100.00;103542.50;10512715;28;19920;-76
2023/01/24 22:44:59;;;;;;;;;;;;;;;-0.47;100.00;103536.44;10480177;28;19926;-77
2023/01/24 22:49:59;;;;;;;;;;;;;;;-0.42;100.00;103535.41;10511406;28;20431;-77
2023/01/24 22:55:00;;;;;;;;;;;;;;;-0.60;100.00;103527.06;10482732;28;19927;-77
2023/01/24 23:00:00;;;;;;;;;;;;;;;-0.69;100.00;103536.09;10509181;28;19916;-76
2023/01/24 23:05:01;;;;;;;;;;;;;;;-0.57;100.00;103538.47;10513801;28;19920;-77
2023/01/24 23:10:01;;;;;;;;;;;;;;;-0.69;100.00;103542.91;10493398;28;20022;-77
2023/01/24 23:25:39;;;;;;;;;;;;;;;-0.65;100.00;103512.66;10491786;28;19921;-76
2023/01/24 23:30:58;;;;;;;;;;;;;;;-0.72;100.00;103511.63;10493108;28;19926;-77
2023/01/24 23:35:59;;;;;;;;;;;;;;;-0.67;100.00;103498.66;10482743;28;20358;-77
2023/01/24 23:40:59;;;;;;;;;;;;;;;-0.73;100.00;103499.47;10514963;28;19924;-75
2023/01/24 23:45:59;;;;;;;;;;;;;;;-0.75;100.00;103487.34;10490612;28;19920;-76
2023/01/24 23:51:00;;;;;;;;;;;;;;;-0.74;100.00;103480.53;10509027;28;19927;-76
2023/01/24 23:56:00;;;;;;;;;;;;;;;-0.84;100.00;103477.44;10523618;28;19924;-77
